createdAt,value
2019-05-15T00:00:44.662Z,991.86
2019-05-15T00:02:38.848Z,991.85
2019-05-15T00:03:39.105Z,991.90
2019-05-15T00:05:30.259Z,991.90
2019-05-15T00:06:30.144Z,991.85
2019-05-15T00:08:22.939Z,991.82
2019-05-15T00:09:22.937Z,991.82
2019-05-15T00:11:15.741Z,991.82
2019-05-15T00:12:15.627Z,991.83
2019-05-15T00:14:08.790Z,991.81
2019-05-15T00:15:09.336Z,991.78
2019-05-15T00:17:01.224Z,991.75
2019-05-15T00:18:01.104Z,991.75
2019-05-15T00:19:53.905Z,991.72
2019-05-15T00:20:53.902Z,991.75
2019-05-15T00:22:48.463Z,991.68
2019-05-15T00:23:46.587Z,991.71
2019-05-15T00:25:40.004Z,991.67
2019-05-15T00:26:39.510Z,991.65
2019-05-15T00:28:32.426Z,991.64
2019-05-15T00:29:32.309Z,991.64
2019-05-15T00:31:25.111Z,991.61
2019-05-15T00:32:24.991Z,991.58
2019-05-15T00:34:18.396Z,991.62
2019-05-15T00:35:18.408Z,991.60
2019-05-15T00:37:10.592Z,991.58
2019-05-15T00:38:10.597Z,991.58
2019-05-15T00:40:03.395Z,991.56
2019-05-15T00:41:03.275Z,991.53
2019-05-15T00:42:57.905Z,991.53
2019-05-15T00:43:58.343Z,991.53
2019-05-15T00:45:58.610Z,991.52
2019-05-15T00:46:48.927Z,991.55
2019-05-15T00:48:41.680Z,991.54
2019-05-15T00:49:41.557Z,991.49
2019-05-15T00:51:34.838Z,991.48
2019-05-15T00:52:34.241Z,991.43
2019-05-15T00:54:28.225Z,991.43
2019-05-15T00:55:28.439Z,991.43
2019-05-15T00:57:20.361Z,991.40
2019-05-15T00:58:20.200Z,991.36
2019-05-15T01:00:12.641Z,991.38
2019-05-15T01:01:12.525Z,991.37
2019-05-15T01:03:05.929Z,991.35
2019-05-15T01:04:07.894Z,991.32
2019-05-15T01:05:58.846Z,991.33
2019-05-15T01:06:58.982Z,991.31
2019-05-15T01:08:51.529Z,991.24
2019-05-15T01:09:51.410Z,991.21
2019-05-15T01:11:44.339Z,991.18
2019-05-15T01:12:44.209Z,991.21
2019-05-15T01:14:38.615Z,991.22
2019-05-15T01:15:38.695Z,991.18
2019-05-15T01:17:29.693Z,991.15
2019-05-15T01:18:29.692Z,991.11
2019-05-15T01:20:22.503Z,991.09
2019-05-15T01:21:22.375Z,991.11
2019-05-15T01:23:15.176Z,991.14
2019-05-15T01:24:15.175Z,991.10
2019-05-15T01:26:08.412Z,991.11
2019-05-15T01:27:09.133Z,991.13
2019-05-15T01:29:00.776Z,991.03
2019-05-15T01:30:00.658Z,991.03
2019-05-15T01:31:53.461Z,991.05
2019-05-15T01:32:53.343Z,991.01
2019-05-15T01:34:46.259Z,991.03
2019-05-15T01:35:48.561Z,991.03
2019-05-15T01:37:39.339Z,991.02
2019-05-15T01:38:39.135Z,990.99
2019-05-15T01:40:31.746Z,990.96
2019-05-15T01:41:31.622Z,990.94
2019-05-15T01:43:25.052Z,990.95
2019-05-15T01:44:24.546Z,990.97
2019-05-15T01:46:19.143Z,990.92
2019-05-15T01:47:18.997Z,990.91
2019-05-15T01:49:10.151Z,990.85
2019-05-15T01:50:10.030Z,990.85
2019-05-15T01:52:02.831Z,990.83
2019-05-15T01:53:02.827Z,990.84
2019-05-15T01:54:58.105Z,990.79
2019-05-15T01:55:55.515Z,990.84
2019-05-15T01:57:48.754Z,990.83
2019-05-15T01:58:48.749Z,990.82
2019-05-15T02:00:41.124Z,990.84
2019-05-15T02:01:41.002Z,990.82
2019-05-15T02:03:33.796Z,990.85
2019-05-15T02:04:33.794Z,990.80
2019-05-15T02:06:28.482Z,990.81
2019-05-15T02:07:28.088Z,990.80
2019-05-15T02:09:19.282Z,990.78
2019-05-15T02:10:19.277Z,990.78
2019-05-15T02:12:12.082Z,990.77
2019-05-15T02:13:11.961Z,990.80
2019-05-15T02:15:04.879Z,990.81
2019-05-15T02:16:04.759Z,990.81
2019-05-15T02:17:58.769Z,990.76
2019-05-15T02:18:58.200Z,990.77
2019-05-15T02:20:50.362Z,990.72
2019-05-15T02:21:50.247Z,990.69
2019-05-15T02:23:43.046Z,990.74
2019-05-15T02:24:42.927Z,990.73
2019-05-15T02:26:35.846Z,990.69
2019-05-15T02:27:35.724Z,990.74
2019-05-15T02:29:28.768Z,990.69
2019-05-15T02:30:33.642Z,990.66
2019-05-15T02:32:21.810Z,990.70
2019-05-15T02:33:21.691Z,990.67
2019-05-15T02:34:21.688Z,990.63
2019-05-15T02:35:21.573Z,990.62
2019-05-15T02:36:21.570Z,990.64
2019-05-15T02:37:21.570Z,990.64
2019-05-15T02:38:21.452Z,990.60
2019-05-15T02:39:21.336Z,990.59
2019-05-15T02:40:21.333Z,990.61
2019-05-15T02:41:21.331Z,990.63
2019-05-15T02:42:21.217Z,990.60
2019-05-15T02:43:21.212Z,990.65
2019-05-15T02:44:21.096Z,990.61
2019-05-15T02:45:21.094Z,990.60
2019-05-15T02:46:21.000Z,990.59
2019-05-15T02:47:20.976Z,990.62
2019-05-15T02:48:20.857Z,990.61
2019-05-15T02:49:20.856Z,990.55
2019-05-15T02:50:20.739Z,990.59
2019-05-15T02:51:20.737Z,990.54
2019-05-15T02:52:20.620Z,990.57
2019-05-15T02:53:20.617Z,990.56
2019-05-15T02:54:20.503Z,990.56
2019-05-15T02:55:20.537Z,990.55
2019-05-15T02:56:20.686Z,990.61
2019-05-15T02:57:20.383Z,990.55
2019-05-15T02:58:21.689Z,990.59
2019-05-15T02:59:20.264Z,990.52
2019-05-15T03:00:36.780Z,990.54
2019-05-15T03:01:20.142Z,990.53
2019-05-15T03:02:20.149Z,990.54
2019-05-15T03:03:20.593Z,990.55
2019-05-15T03:04:20.241Z,990.57
2019-05-15T03:05:19.905Z,990.58
2019-05-15T03:06:19.903Z,990.50
2019-05-15T03:07:19.796Z,990.56
2019-05-15T03:08:19.885Z,990.54
2019-05-15T03:09:19.667Z,990.52
2019-05-15T03:10:20.092Z,990.52
2019-05-15T03:11:19.548Z,990.50
2019-05-15T03:12:19.778Z,990.49
2019-05-15T03:13:19.583Z,990.52
2019-05-15T03:14:21.428Z,990.44
2019-05-15T03:15:19.574Z,990.46
2019-05-15T03:16:19.668Z,990.45
2019-05-15T03:17:19.267Z,990.43
2019-05-15T03:18:19.585Z,990.42
2019-05-15T03:19:19.523Z,990.45
2019-05-15T03:20:19.071Z,990.44
2019-05-15T03:21:19.095Z,990.44
2019-05-15T03:22:19.653Z,990.43
2019-05-15T03:23:19.832Z,990.41
2019-05-15T03:24:19.557Z,990.44
2019-05-15T03:25:19.262Z,990.39
2019-05-15T03:26:19.742Z,990.41
2019-05-15T03:27:19.744Z,990.40
2019-05-15T03:28:19.169Z,990.42
2019-05-15T03:29:20.882Z,990.39
2019-05-15T03:30:21.836Z,990.40
2019-05-15T03:31:40.259Z,990.41
2019-05-15T03:32:32.813Z,990.42
2019-05-15T03:33:27.257Z,990.41
2019-05-15T03:34:23.051Z,990.40
2019-05-15T03:35:22.871Z,990.40
2019-05-15T03:36:23.545Z,990.40
2019-05-15T03:37:22.083Z,990.42
2019-05-15T03:38:19.321Z,990.42
2019-05-15T03:39:19.040Z,990.43
2019-05-15T03:40:19.322Z,990.39
2019-05-15T03:41:19.483Z,990.41
2019-05-15T03:42:19.127Z,990.38
2019-05-15T03:43:18.624Z,990.43
2019-05-15T03:44:19.801Z,990.40
2019-05-15T03:45:19.198Z,990.45
2019-05-15T03:46:20.027Z,990.42
2019-05-15T03:47:19.490Z,990.43
2019-05-15T03:48:19.630Z,990.40
2019-05-15T03:49:19.969Z,990.39
2019-05-15T03:50:19.402Z,990.46
2019-05-15T03:51:19.832Z,990.38
2019-05-15T03:52:19.111Z,990.38
2019-05-15T03:53:19.340Z,990.35
2019-05-15T03:54:18.898Z,990.36
2019-05-15T03:55:18.694Z,990.33
2019-05-15T03:56:19.081Z,990.32
2019-05-15T03:57:20.108Z,990.33
2019-05-15T03:58:21.223Z,990.35
2019-05-15T03:59:19.301Z,990.36
2019-05-15T04:00:19.485Z,990.34
2019-05-15T04:01:29.951Z,990.32
2019-05-15T04:02:19.413Z,990.32
2019-05-15T04:03:19.929Z,990.34
2019-05-15T04:04:18.882Z,990.39
2019-05-15T04:05:19.657Z,990.37
2019-05-15T04:06:19.272Z,990.37
2019-05-15T04:07:18.822Z,990.36
2019-05-15T04:08:19.181Z,990.40
2019-05-15T04:09:18.866Z,990.39
2019-05-15T04:10:19.745Z,990.41
2019-05-15T04:11:16.215Z,990.38
2019-05-15T04:12:19.392Z,990.39
2019-05-15T04:13:19.217Z,990.41
2019-05-15T04:14:19.155Z,990.41
2019-05-15T04:15:18.573Z,990.35
2019-05-15T04:16:18.847Z,990.36
2019-05-15T04:17:15.858Z,990.33
2019-05-15T04:18:15.744Z,990.32
2019-05-15T04:19:18.831Z,990.30
2019-05-15T04:20:15.625Z,990.34
2019-05-15T04:21:15.620Z,990.29
2019-05-15T04:22:15.620Z,990.36
2019-05-15T04:23:15.501Z,990.31
2019-05-15T04:24:15.528Z,990.28
2019-05-15T04:25:15.382Z,990.30
2019-05-15T04:26:15.382Z,990.33
2019-05-15T04:27:15.264Z,990.31
2019-05-15T04:28:15.265Z,990.30
2019-05-15T04:29:15.148Z,990.30
2019-05-15T04:30:15.146Z,990.31
2019-05-15T04:31:15.031Z,990.32
2019-05-15T04:32:15.025Z,990.32
2019-05-15T04:33:14.909Z,990.34
2019-05-15T04:34:14.905Z,990.39
2019-05-15T04:35:14.805Z,990.33
2019-05-15T04:36:14.824Z,990.33
2019-05-15T04:37:14.682Z,990.35
2019-05-15T04:38:14.667Z,990.39
2019-05-15T04:39:14.553Z,990.39
2019-05-15T04:40:14.551Z,990.41
2019-05-15T04:41:14.436Z,990.39
2019-05-15T04:42:14.429Z,990.43
2019-05-15T04:43:14.313Z,990.40
2019-05-15T04:44:14.314Z,990.38
2019-05-15T04:45:14.311Z,990.41
2019-05-15T04:46:14.194Z,990.41
2019-05-15T04:47:14.193Z,990.41
2019-05-15T04:48:14.076Z,990.44
2019-05-15T04:49:14.076Z,990.42
2019-05-15T04:50:13.957Z,990.43
2019-05-15T04:51:13.959Z,990.46
2019-05-15T04:52:13.840Z,990.46
2019-05-15T04:53:13.836Z,990.50
2019-05-15T04:54:28.831Z,990.45
2019-05-15T04:55:13.721Z,990.45
2019-05-15T04:56:13.599Z,990.52
2019-05-15T04:57:13.598Z,990.55
2019-05-15T04:58:13.482Z,990.50
2019-05-15T04:59:13.498Z,990.54
2019-05-15T05:00:13.363Z,990.56
2019-05-15T05:01:13.360Z,990.55
2019-05-15T05:02:19.517Z,990.58
2019-05-15T05:03:13.241Z,990.56
2019-05-15T05:04:13.124Z,990.53
2019-05-15T05:05:13.122Z,990.50
2019-05-15T05:06:13.005Z,990.54
2019-05-15T05:07:13.004Z,990.53
2019-05-15T05:08:13.005Z,990.50
2019-05-15T05:09:12.883Z,990.51
2019-05-15T05:10:12.884Z,990.55
2019-05-15T05:11:12.768Z,990.52
2019-05-15T05:12:12.765Z,990.52
2019-05-15T05:13:12.648Z,990.54
2019-05-15T05:14:12.646Z,990.52
2019-05-15T05:15:12.529Z,990.51
2019-05-15T05:16:12.529Z,990.53
2019-05-15T05:17:12.415Z,990.50
2019-05-15T05:18:12.407Z,990.51
2019-05-15T05:19:12.295Z,990.50
2019-05-15T05:20:12.288Z,990.46
2019-05-15T05:21:12.171Z,990.44
2019-05-15T05:22:12.169Z,990.42
2019-05-15T05:23:12.051Z,990.47
2019-05-15T05:24:12.051Z,990.48
2019-05-15T05:25:11.933Z,990.47
2019-05-15T05:26:11.937Z,990.44
2019-05-15T05:27:11.814Z,990.47
2019-05-15T05:28:11.811Z,990.43
2019-05-15T05:29:11.710Z,990.42
2019-05-15T05:30:11.693Z,990.48
2019-05-15T05:31:14.143Z,990.42
2019-05-15T05:32:11.621Z,990.48
2019-05-15T05:33:11.575Z,990.43
2019-05-15T05:34:11.462Z,990.46
2019-05-15T05:35:11.462Z,990.44
2019-05-15T05:36:11.337Z,990.43
2019-05-15T05:37:11.337Z,990.45
2019-05-15T05:38:11.218Z,990.49
2019-05-15T05:39:13.635Z,990.47
2019-05-15T05:40:11.106Z,990.49
2019-05-15T05:41:11.098Z,990.51
2019-05-15T05:42:10.982Z,990.50
2019-05-15T05:43:10.981Z,990.52
2019-05-15T05:44:10.862Z,990.52
2019-05-15T05:45:10.860Z,990.51
2019-05-15T05:46:10.743Z,990.52
2019-05-15T05:47:10.742Z,990.52
2019-05-15T05:48:10.625Z,990.51
2019-05-15T05:49:10.624Z,990.53
2019-05-15T05:50:10.505Z,990.49
2019-05-15T05:51:10.502Z,990.53
2019-05-15T05:52:10.503Z,990.54
2019-05-15T05:53:10.395Z,990.52
2019-05-15T05:54:10.385Z,990.53
2019-05-15T05:55:10.271Z,990.50
2019-05-15T05:56:10.265Z,990.55
2019-05-15T05:57:10.146Z,990.48
2019-05-15T05:58:10.145Z,990.46
2019-05-15T05:59:10.032Z,990.53
2019-05-15T06:00:10.040Z,990.48
2019-05-15T06:01:09.912Z,990.53
2019-05-15T06:02:09.908Z,990.44
2019-05-15T06:03:09.795Z,990.43
2019-05-15T06:04:09.791Z,990.48
2019-05-15T06:05:09.674Z,990.43
2019-05-15T06:06:10.044Z,990.44
2019-05-15T06:07:14.069Z,990.50
2019-05-15T06:08:09.550Z,990.51
2019-05-15T06:09:09.462Z,990.48
2019-05-15T06:10:09.554Z,990.49
2019-05-15T06:11:09.953Z,990.51
2019-05-15T06:12:09.313Z,990.51
2019-05-15T06:13:09.199Z,990.39
2019-05-15T06:14:09.196Z,990.54
2019-05-15T06:15:09.273Z,990.50
2019-05-15T06:16:09.076Z,990.46
2019-05-15T06:17:09.076Z,990.47
2019-05-15T06:18:08.957Z,990.46
2019-05-15T06:19:08.956Z,990.49
2019-05-15T06:20:08.838Z,990.45
2019-05-15T06:21:09.300Z,990.46
2019-05-15T06:22:08.895Z,990.42
2019-05-15T06:23:08.720Z,990.46
2019-05-15T06:24:13.065Z,990.42
2019-05-15T06:25:11.279Z,990.44
2019-05-15T06:26:09.387Z,990.41
2019-05-15T06:27:08.480Z,990.41
2019-05-15T06:28:09.147Z,990.40
2019-05-15T06:29:08.830Z,990.37
2019-05-15T06:30:09.273Z,990.39
2019-05-15T06:31:08.881Z,990.40
2019-05-15T06:32:08.161Z,990.37
2019-05-15T06:33:13.127Z,990.37
2019-05-15T06:34:08.313Z,990.38
2019-05-15T06:35:08.705Z,990.35
2019-05-15T06:36:08.884Z,990.35
2019-05-15T06:37:08.391Z,990.31
2019-05-15T06:38:08.549Z,990.30
2019-05-15T06:39:08.483Z,990.32
2019-05-15T06:40:08.501Z,990.31
2019-05-15T06:41:08.761Z,990.33
2019-05-15T06:42:08.776Z,990.29
2019-05-15T06:43:08.764Z,990.33
2019-05-15T06:44:07.974Z,990.30
2019-05-15T06:45:08.087Z,990.31
2019-05-15T06:46:09.200Z,990.35
2019-05-15T06:47:08.209Z,990.30
2019-05-15T06:48:09.462Z,990.30
2019-05-15T06:49:08.484Z,990.32
2019-05-15T06:50:08.562Z,990.28
2019-05-15T06:51:08.850Z,990.31
2019-05-15T06:52:08.861Z,990.27
2019-05-15T06:53:10.139Z,990.27
2019-05-15T06:54:08.736Z,990.28
2019-05-15T06:55:08.974Z,990.29
2019-05-15T06:56:07.961Z,990.25
2019-05-15T06:57:09.057Z,990.21
2019-05-15T06:58:09.053Z,990.21
2019-05-15T06:59:08.665Z,990.21
2019-05-15T07:00:08.423Z,990.20
2019-05-15T07:01:08.772Z,990.20
2019-05-15T07:02:08.098Z,990.17
2019-05-15T07:03:20.209Z,990.19
2019-05-15T07:04:08.340Z,990.16
2019-05-15T07:05:07.859Z,990.17
2019-05-15T07:06:09.030Z,990.19
2019-05-15T07:07:08.914Z,990.20
2019-05-15T07:08:06.108Z,990.24
2019-05-15T07:09:09.143Z,990.24
2019-05-15T07:10:05.992Z,990.23
2019-05-15T07:11:08.513Z,990.27
2019-05-15T07:12:07.938Z,990.26
2019-05-15T07:13:05.874Z,990.27
2019-05-15T07:14:05.745Z,990.20
2019-05-15T07:15:05.747Z,990.22
2019-05-15T07:16:07.891Z,990.21
2019-05-15T07:17:05.625Z,990.24
2019-05-15T07:18:05.508Z,990.18
2019-05-15T07:19:05.505Z,990.23
2019-05-15T07:20:05.391Z,990.24
2019-05-15T07:21:05.387Z,990.23
2019-05-15T07:22:05.271Z,990.23
2019-05-15T07:23:05.275Z,990.24
2019-05-15T07:24:05.267Z,990.24
2019-05-15T07:25:05.149Z,990.24
2019-05-15T07:26:05.148Z,990.22
2019-05-15T07:27:05.032Z,990.24
2019-05-15T07:28:05.030Z,990.22
2019-05-15T07:29:04.912Z,990.28
2019-05-15T07:30:04.911Z,990.23
2019-05-15T07:31:04.795Z,990.29
2019-05-15T07:32:04.791Z,990.25
2019-05-15T07:33:04.674Z,990.24
2019-05-15T07:34:04.675Z,990.20
2019-05-15T07:35:04.557Z,990.20
2019-05-15T07:36:04.554Z,990.23
2019-05-15T07:37:04.444Z,990.22
2019-05-15T07:38:04.444Z,990.23
2019-05-15T07:39:04.319Z,990.20
2019-05-15T07:40:04.315Z,990.19
2019-05-15T07:41:04.631Z,990.23
2019-05-15T07:42:04.196Z,990.23
2019-05-15T07:43:04.080Z,990.25
2019-05-15T07:44:04.077Z,990.23
2019-05-15T07:45:03.961Z,990.22
2019-05-15T07:46:03.957Z,990.18
2019-05-15T07:47:03.958Z,990.15
2019-05-15T07:48:03.844Z,990.19
2019-05-15T07:49:03.840Z,990.14
2019-05-15T07:50:03.722Z,990.16
2019-05-15T07:51:03.721Z,990.13
2019-05-15T07:52:03.606Z,990.13
2019-05-15T07:53:03.601Z,990.09
2019-05-15T07:54:03.493Z,990.11
2019-05-15T07:55:03.493Z,990.12
2019-05-15T07:56:03.371Z,990.11
2019-05-15T07:57:03.364Z,990.05
2019-05-15T07:58:03.253Z,990.05
2019-05-15T07:59:03.245Z,990.08
2019-05-15T08:00:03.134Z,990.06
2019-05-15T08:01:05.382Z,990.06
2019-05-15T08:02:03.009Z,990.05
2019-05-15T08:03:03.006Z,990.05
2019-05-15T08:04:21.762Z,990.07
2019-05-15T08:05:02.887Z,990.00
2019-05-15T08:06:03.298Z,990.00
2019-05-15T08:07:02.770Z,989.98
2019-05-15T08:08:02.652Z,989.98
2019-05-15T08:09:02.662Z,990.01
2019-05-15T08:10:02.654Z,990.01
2019-05-15T08:11:16.139Z,990.00
2019-05-15T08:12:03.330Z,989.95
2019-05-15T08:13:02.413Z,990.01
2019-05-15T08:14:03.746Z,990.06
2019-05-15T08:15:02.294Z,990.04
2019-05-15T08:16:02.293Z,989.99
2019-05-15T08:17:02.178Z,989.92
2019-05-15T08:18:08.693Z,989.98
2019-05-15T08:19:02.058Z,989.93
2019-05-15T08:20:02.055Z,989.99
2019-05-15T08:21:01.940Z,989.96
2019-05-15T08:22:01.936Z,989.98
2019-05-15T08:23:01.819Z,989.96
2019-05-15T08:24:01.816Z,990.00
2019-05-15T08:25:01.702Z,989.97
2019-05-15T08:26:01.699Z,989.95
2019-05-15T08:27:01.581Z,990.00
2019-05-15T08:28:01.580Z,989.97
2019-05-15T08:29:01.462Z,989.90
2019-05-15T08:30:01.475Z,989.90
2019-05-15T08:31:02.067Z,989.95
2019-05-15T08:32:01.341Z,989.91
2019-05-15T08:33:01.349Z,989.85
2019-05-15T08:34:12.621Z,989.92
2019-05-15T08:35:01.223Z,989.90
2019-05-15T08:36:01.104Z,989.87
2019-05-15T08:37:01.103Z,989.87
2019-05-15T08:38:00.988Z,989.94
2019-05-15T08:39:00.983Z,989.82
2019-05-15T08:40:00.871Z,989.83
2019-05-15T08:41:00.864Z,989.82
2019-05-15T08:42:00.748Z,989.86
2019-05-15T08:43:02.191Z,989.85
2019-05-15T08:44:00.632Z,989.85
2019-05-15T08:45:00.627Z,989.81
2019-05-15T08:46:00.510Z,989.84
2019-05-15T08:47:00.507Z,989.86
2019-05-15T08:48:00.396Z,989.82
2019-05-15T08:49:00.389Z,989.81
2019-05-15T08:50:00.296Z,989.77
2019-05-15T08:51:00.270Z,989.78
2019-05-15T08:52:00.154Z,989.84
2019-05-15T08:53:00.151Z,989.84
2019-05-15T08:54:00.151Z,989.79
2019-05-15T08:55:00.049Z,989.85
2019-05-15T08:56:00.032Z,989.83
2019-05-15T08:56:59.915Z,989.83
2019-05-15T08:58:07.250Z,989.82
2019-05-15T08:58:59.796Z,989.79
2019-05-15T08:59:59.797Z,989.71
2019-05-15T09:00:59.677Z,989.74
2019-05-15T09:01:59.674Z,989.70
2019-05-15T09:02:59.558Z,989.66
2019-05-15T09:03:59.556Z,989.65
2019-05-15T09:04:59.440Z,989.67
2019-05-15T09:05:59.436Z,989.65
2019-05-15T09:07:01.288Z,989.62
2019-05-15T09:07:59.319Z,989.71
2019-05-15T09:08:59.201Z,989.65
2019-05-15T09:09:59.222Z,989.61
2019-05-15T09:10:59.087Z,989.61
2019-05-15T09:11:59.080Z,989.65
2019-05-15T09:12:58.968Z,989.65
2019-05-15T09:13:59.473Z,989.66
2019-05-15T09:14:58.978Z,989.66
2019-05-15T09:15:59.068Z,989.63
2019-05-15T09:16:58.843Z,989.65
2019-05-15T09:18:11.308Z,989.56
2019-05-15T09:18:59.260Z,989.64
2019-05-15T09:19:58.897Z,989.55
2019-05-15T09:20:59.387Z,989.56
2019-05-15T09:21:58.711Z,989.46
2019-05-15T09:22:58.486Z,989.56
2019-05-15T09:23:58.921Z,989.55
2019-05-15T09:24:59.004Z,989.52
2019-05-15T09:25:58.249Z,989.51
2019-05-15T09:26:59.526Z,989.51
2019-05-15T09:27:58.131Z,989.45
2019-05-15T09:28:58.574Z,989.43
2019-05-15T09:29:59.237Z,989.44
2019-05-15T09:30:59.047Z,989.40
2019-05-15T09:31:58.905Z,989.37
2019-05-15T09:32:58.874Z,989.38
2019-05-15T09:33:58.559Z,989.32
2019-05-15T09:34:59.265Z,989.34
2019-05-15T09:35:58.359Z,989.32
2019-05-15T09:36:59.956Z,989.33
2019-05-15T09:37:58.321Z,989.27
2019-05-15T09:38:58.512Z,989.32
2019-05-15T09:39:58.423Z,989.27
2019-05-15T09:40:58.483Z,989.31
2019-05-15T09:41:57.887Z,989.29
2019-05-15T09:42:57.862Z,989.21
2019-05-15T09:43:57.906Z,989.22
2019-05-15T09:44:58.247Z,989.23
2019-05-15T09:45:58.247Z,989.23
2019-05-15T09:46:58.416Z,989.17
2019-05-15T09:47:58.821Z,989.24
2019-05-15T09:48:59.340Z,989.20
2019-05-15T09:49:58.783Z,989.20
2019-05-15T09:50:58.703Z,989.16
2019-05-15T09:51:58.614Z,989.11
2019-05-15T09:52:58.803Z,989.06
2019-05-15T09:53:59.394Z,989.10
2019-05-15T09:54:59.139Z,989.11
2019-05-15T09:55:56.589Z,989.12
2019-05-15T09:56:58.529Z,989.14
2019-05-15T09:57:58.878Z,989.11
2019-05-15T09:58:58.174Z,989.11
2019-05-15T09:59:58.719Z,989.10
2019-05-15T10:00:56.354Z,989.13
2019-05-15T10:01:58.697Z,989.12
2019-05-15T10:02:56.230Z,989.10
2019-05-15T10:03:56.115Z,989.15
2019-05-15T10:05:05.848Z,989.13
2019-05-15T10:05:55.989Z,989.03
2019-05-15T10:06:55.992Z,989.15
2019-05-15T10:07:55.870Z,989.09
2019-05-15T10:08:55.868Z,989.12
2019-05-15T10:09:55.752Z,989.09
2019-05-15T10:10:55.748Z,989.12
2019-05-15T10:11:55.632Z,989.15
2019-05-15T10:12:59.054Z,989.08
2019-05-15T10:13:55.630Z,989.10
2019-05-15T10:14:55.510Z,989.06
2019-05-15T10:15:55.511Z,989.00
2019-05-15T10:16:58.212Z,989.06
2019-05-15T10:17:55.392Z,989.00
2019-05-15T10:18:55.275Z,988.97
2019-05-15T10:19:55.273Z,988.89
2019-05-15T10:20:55.157Z,988.95
2019-05-15T10:21:55.154Z,988.98
2019-05-15T10:22:55.037Z,988.95
2019-05-15T10:23:55.034Z,988.95
2019-05-15T10:24:54.933Z,988.89
2019-05-15T10:25:54.917Z,988.95
2019-05-15T10:26:54.800Z,988.91
2019-05-15T10:27:54.803Z,988.90
2019-05-15T10:28:54.680Z,988.91
2019-05-15T10:29:54.681Z,988.91
2019-05-15T10:30:54.561Z,988.94
2019-05-15T10:31:54.559Z,988.89
2019-05-15T10:32:54.561Z,988.92
2019-05-15T10:33:54.441Z,988.86
2019-05-15T10:34:54.440Z,988.84
2019-05-15T10:35:54.322Z,988.81
2019-05-15T10:36:54.321Z,988.83
2019-05-15T10:37:54.205Z,988.81
2019-05-15T10:38:54.257Z,988.78
2019-05-15T10:39:54.087Z,988.78
2019-05-15T10:41:03.796Z,988.77
2019-05-15T10:41:53.966Z,988.76
2019-05-15T10:42:53.964Z,988.78
2019-05-15T10:43:56.365Z,988.77
2019-05-15T10:44:53.844Z,988.85
2019-05-15T10:45:54.795Z,988.78
2019-05-15T10:46:53.725Z,988.75
2019-05-15T10:47:53.617Z,988.78
2019-05-15T10:48:53.608Z,988.73
2019-05-15T10:49:53.491Z,988.75
2019-05-15T10:50:53.488Z,988.69
2019-05-15T10:51:53.489Z,988.71
2019-05-15T10:52:53.370Z,988.70
2019-05-15T10:53:53.370Z,988.74
2019-05-15T10:54:53.253Z,988.67
2019-05-15T10:55:53.250Z,988.66
2019-05-15T10:56:53.137Z,988.64
2019-05-15T10:57:53.131Z,988.63
2019-05-15T10:58:53.014Z,988.60
2019-05-15T10:59:53.012Z,988.60
2019-05-15T11:00:52.896Z,988.59
2019-05-15T11:01:52.892Z,988.68
2019-05-15T11:02:52.776Z,988.64
2019-05-15T11:03:52.787Z,988.63
2019-05-15T11:04:52.658Z,988.65
2019-05-15T11:05:52.654Z,988.57
2019-05-15T11:06:52.539Z,988.53
2019-05-15T11:07:52.536Z,988.50
2019-05-15T11:08:52.537Z,988.47
2019-05-15T11:09:52.418Z,988.44
2019-05-15T11:10:52.425Z,988.51
2019-05-15T11:11:52.300Z,988.49
2019-05-15T11:12:52.299Z,988.47
2019-05-15T11:13:52.182Z,988.49
2019-05-15T11:14:52.180Z,988.46
2019-05-15T11:15:52.068Z,988.48
2019-05-15T11:16:52.075Z,988.47
2019-05-15T11:17:51.956Z,988.45
2019-05-15T11:18:53.567Z,988.50
2019-05-15T11:19:51.824Z,988.48
2019-05-15T11:20:51.822Z,988.43
2019-05-15T11:21:51.708Z,988.44
2019-05-15T11:22:51.704Z,988.36
2019-05-15T11:23:51.587Z,988.41
2019-05-15T11:24:53.114Z,988.42
2019-05-15T11:25:51.585Z,988.48
2019-05-15T11:26:51.467Z,988.40
2019-05-15T11:27:51.466Z,988.38
2019-05-15T11:28:51.351Z,988.35
2019-05-15T11:29:51.346Z,988.31
2019-05-15T11:30:51.229Z,988.32
2019-05-15T11:31:51.227Z,988.26
2019-05-15T11:32:51.111Z,988.24
2019-05-15T11:33:51.110Z,988.31
2019-05-15T11:34:50.998Z,988.33
2019-05-15T11:36:00.431Z,988.39
2019-05-15T11:36:50.873Z,988.24
2019-05-15T11:37:56.611Z,988.34
2019-05-15T11:38:50.754Z,988.26
2019-05-15T11:39:50.755Z,988.24
2019-05-15T11:40:50.635Z,988.23
2019-05-15T11:41:50.638Z,988.29
2019-05-15T11:42:50.633Z,988.24
2019-05-15T11:43:50.516Z,988.19
2019-05-15T11:44:53.214Z,988.24
2019-05-15T11:45:50.396Z,988.18
2019-05-15T11:46:50.399Z,988.12
2019-05-15T11:47:50.278Z,988.15
2019-05-15T11:48:50.276Z,988.15
2019-05-15T11:49:50.159Z,988.11
2019-05-15T11:50:50.162Z,988.10
2019-05-15T11:51:50.041Z,988.12
2019-05-15T11:52:50.041Z,988.13
2019-05-15T11:53:49.921Z,988.13
2019-05-15T11:54:49.921Z,988.08
2019-05-15T11:55:49.805Z,988.09
2019-05-15T11:56:49.804Z,988.10
2019-05-15T11:57:52.292Z,988.07
2019-05-15T11:58:49.681Z,988.07
2019-05-15T11:59:55.192Z,988.07
2019-05-15T12:00:49.562Z,988.01
2019-05-15T12:01:49.562Z,988.03
2019-05-15T12:02:49.447Z,988.03
2019-05-15T12:03:49.443Z,987.98
2019-05-15T12:04:49.328Z,988.01
2019-05-15T12:05:49.325Z,987.97
2019-05-15T12:06:58.920Z,987.96
2019-05-15T12:07:49.206Z,988.02
2019-05-15T12:08:49.089Z,988.03
2019-05-15T12:09:49.085Z,988.06
2019-05-15T12:10:48.973Z,988.05
2019-05-15T12:11:48.970Z,988.18
2019-05-15T12:12:49.660Z,988.05
2019-05-15T12:13:48.849Z,988.01
2019-05-15T12:14:49.425Z,988.03
2019-05-15T12:15:48.827Z,988.00
2019-05-15T12:17:05.200Z,987.96
2019-05-15T12:17:48.701Z,987.95
2019-05-15T12:18:48.612Z,987.95
2019-05-15T12:19:55.129Z,987.94
2019-05-15T12:20:48.851Z,987.91
2019-05-15T12:21:49.082Z,987.95
2019-05-15T12:22:48.704Z,987.89
2019-05-15T12:23:48.775Z,987.88
2019-05-15T12:24:49.859Z,987.98
2019-05-15T12:25:48.962Z,988.03
2019-05-15T12:26:48.965Z,988.02
2019-05-15T12:27:49.138Z,988.01
2019-05-15T12:28:48.929Z,988.04
2019-05-15T12:29:49.132Z,988.03
2019-05-15T12:30:49.222Z,988.09
2019-05-15T12:31:49.584Z,987.98
2019-05-15T12:32:49.379Z,988.00
2019-05-15T12:33:48.963Z,987.99
2019-05-15T12:34:49.534Z,987.93
2019-05-15T12:35:50.812Z,987.99
2019-05-15T12:36:56.828Z,988.01
2019-05-15T12:37:47.544Z,987.97
2019-05-15T12:39:24.794Z,987.93
2019-05-15T12:39:49.274Z,987.91
2019-05-15T12:59:46.237Z,987.78
2019-05-15T13:00:46.231Z,987.82
2019-05-15T13:01:46.116Z,987.85
2019-05-15T13:02:46.113Z,987.84
2019-05-15T13:03:46.112Z,987.81
2019-05-15T13:04:45.995Z,987.84
2019-05-15T13:05:48.370Z,987.82
2019-05-15T13:06:53.153Z,987.76
2019-05-15T13:07:48.192Z,987.83
2019-05-15T13:08:48.649Z,987.70
2019-05-15T13:09:45.755Z,987.79
2019-05-15T13:10:45.640Z,987.77
2019-05-15T13:11:45.636Z,987.73
2019-05-15T13:12:59.321Z,987.74
2019-05-15T13:13:45.519Z,987.67
2019-05-15T13:14:45.401Z,987.68
2019-05-15T13:15:48.101Z,987.76
2019-05-15T13:16:45.285Z,987.69
2019-05-15T13:17:45.278Z,987.64
2019-05-15T13:18:45.280Z,987.66
2019-05-15T13:19:45.164Z,987.68
2019-05-15T13:20:45.160Z,987.69
2019-05-15T13:21:45.044Z,987.67
2019-05-15T13:22:45.043Z,987.69
2019-05-15T13:23:44.927Z,987.70
2019-05-15T13:24:44.923Z,987.68
2019-05-15T13:25:44.807Z,987.72
2019-05-15T13:26:44.803Z,987.74
2019-05-15T13:27:44.686Z,987.67
2019-05-15T13:28:44.686Z,987.74
2019-05-15T13:29:44.570Z,987.68
2019-05-15T13:30:44.565Z,987.64
2019-05-15T13:31:44.450Z,987.64
2019-05-15T13:32:44.447Z,987.72
2019-05-15T13:33:44.449Z,987.62